sensor_id;sensor_type;location;lat;lon;timestamp;temperature;humidity
13472;DHT22;6808;49.444;11.034;2023-07-22T00:00:29;17.10;99.90
13472;DHT22;6808;49.444;11.034;2023-07-22T00:02:55;17.10;99.90
13472;DHT22;6808;49.444;11.034;2023-07-22T00:05:21;17.10;99.90
13472;DHT22;6808;49.444;11.034;2023-07-22T00:07:49;17.00;99.90
13472;DHT22;6808;49.444;11.034;2023-07-22T00:10:16;17.10;99.90
13472;DHT22;6808;49.444;11.034;2023-07-22T00:12:41;17.10;99.90
13472;DHT22;6808;49.444;11.034;2023-07-22T00:15:07;17.10;99.90
13472;DHT22;6808;49.444;11.034;2023-07-22T00:17:33;17.20;99.90
13472;DHT22;6808;49.444;11.034;2023-07-22T00:19:59;17.20;99.90
13472;DHT22;6808;49.444;11.034;2023-07-22T00:22:25;17.10;99.90
13472;DHT22;6808;49.444;11.034;2023-07-22T00:24:52;17.10;99.90
13472;DHT22;6808;49.444;11.034;2023-07-22T00:27:18;17.00;99.90
13472;DHT22;6808;49.444;11.034;2023-07-22T00:29:43;17.00;99.90
13472;DHT22;6808;49.444;11.034;2023-07-22T00:32:09;16.90;99.90
13472;DHT22;6808;49.444;11.034;2023-07-22T00:34:35;16.80;99.90
13472;DHT22;6808;49.444;11.034;2023-07-22T00:37:02;16.80;99.90
13472;DHT22;6808;49.444;11.034;2023-07-22T00:39:27;17.00;99.90
13472;DHT22;6808;49.444;11.034;2023-07-22T00:41:53;16.60;99.90
13472;DHT22;6808;49.444;11.034;2023-07-22T00:44:19;16.60;99.90
13472;DHT22;6808;49.444;11.034;2023-07-22T00:46:44;16.70;99.90
13472;DHT22;6808;49.444;11.034;2023-07-22T00:49:10;16.70;99.90
13472;DHT22;6808;49.444;11.034;2023-07-22T00:51:39;16.70;99.90
13472;DHT22;6808;49.444;11.034;2023-07-22T00:54:05;16.60;99.90
13472;DHT22;6808;49.444;11.034;2023-07-22T00:56:33;16.50;99.90
13472;DHT22;6808;49.444;11.034;2023-07-22T00:59:01;16.50;99.90
13472;DHT22;6808;49.444;11.034;2023-07-22T01:01:26;16.50;99.90
13472;DHT22;6808;49.444;11.034;2023-07-22T01:03:52;16.50;99.90
13472;DHT22;6808;49.444;11.034;2023-07-22T01:06:18;16.50;99.90
13472;DHT22;6808;49.444;11.034;2023-07-22T01:08:45;16.50;99.90
13472;DHT22;6808;49.444;11.034;2023-07-22T01:11:12;16.40;99.90
13472;DHT22;6808;49.444;11.034;2023-07-22T01:13:38;16.50;99.90
13472;DHT22;6808;49.444;11.034;2023-07-22T01:16:05;16.40;99.90
13472;DHT22;6808;49.444;11.034;2023-07-22T01:18:32;16.40;99.90
13472;DHT22;6808;49.444;11.034;2023-07-22T01:20:58;16.40;99.90
13472;DHT22;6808;49.444;11.034;2023-07-22T01:23:24;16.40;99.90
13472;DHT22;6808;49.444;11.034;2023-07-22T01:25:50;16.30;99.90
13472;DHT22;6808;49.444;11.034;2023-07-22T01:28:16;16.30;99.90
13472;DHT22;6808;49.444;11.034;2023-07-22T01:30:42;16.30;99.90
13472;DHT22;6808;49.444;11.034;2023-07-22T01:33:07;16.30;99.90
13472;DHT22;6808;49.444;11.034;2023-07-22T01:35:33;16.30;99.90
13472;DHT22;6808;49.444;11.034;2023-07-22T01:37:59;16.30;99.90
13472;DHT22;6808;49.444;11.034;2023-07-22T01:40:25;16.30;99.90
13472;DHT22;6808;49.444;11.034;2023-07-22T01:42:51;16.30;99.90
13472;DHT22;6808;49.444;11.034;2023-07-22T01:45:16;16.30;99.90
13472;DHT22;6808;49.444;11.034;2023-07-22T01:47:42;16.30;99.90
13472;DHT22;6808;49.444;11.034;2023-07-22T01:50:08;16.20;99.90
13472;DHT22;6808;49.444;11.034;2023-07-22T01:52:34;16.30;99.90
13472;DHT22;6808;49.444;11.034;2023-07-22T01:55:00;16.20;99.90
13472;DHT22;6808;49.444;11.034;2023-07-22T01:57:26;16.20;99.90
13472;DHT22;6808;49.444;11.034;2023-07-22T01:59:52;16.20;99.90
13472;DHT22;6808;49.444;11.034;2023-07-22T02:02:19;16.20;99.90
13472;DHT22;6808;49.444;11.034;2023-07-22T02:04:45;16.20;99.90
13472;DHT22;6808;49.444;11.034;2023-07-22T02:07:11;16.10;99.90
13472;DHT22;6808;49.444;11.034;2023-07-22T02:09:36;16.20;99.90
13472;DHT22;6808;49.444;11.034;2023-07-22T02:12:02;16.20;99.90
13472;DHT22;6808;49.444;11.034;2023-07-22T02:14:28;16.20;99.90
13472;DHT22;6808;49.444;11.034;2023-07-22T02:16:53;16.20;99.90
13472;DHT22;6808;49.444;11.034;2023-07-22T02:19:19;16.20;99.90
13472;DHT22;6808;49.444;11.034;2023-07-22T02:21:44;16.20;99.90
13472;DHT22;6808;49.444;11.034;2023-07-22T02:24:10;16.20;99.90
13472;DHT22;6808;49.444;11.034;2023-07-22T02:26:36;16.10;99.90
13472;DHT22;6808;49.444;11.034;2023-07-22T02:29:02;16.10;99.90
13472;DHT22;6808;49.444;11.034;2023-07-22T02:31:27;16.00;99.90
13472;DHT22;6808;49.444;11.034;2023-07-22T02:33:53;16.00;99.90
13472;DHT22;6808;49.444;11.034;2023-07-22T02:36:19;16.00;99.90
13472;DHT22;6808;49.444;11.034;2023-07-22T02:38:44;15.90;99.90
13472;DHT22;6808;49.444;11.034;2023-07-22T02:41:10;15.90;99.90
13472;DHT22;6808;49.444;11.034;2023-07-22T02:43:35;15.90;99.90
13472;DHT22;6808;49.444;11.034;2023-07-22T02:46:02;15.80;99.90
13472;DHT22;6808;49.444;11.034;2023-07-22T02:48:28;15.80;99.90
13472;DHT22;6808;49.444;11.034;2023-07-22T02:50:54;15.80;99.90
13472;DHT22;6808;49.444;11.034;2023-07-22T02:53:20;15.80;99.90
13472;DHT22;6808;49.444;11.034;2023-07-22T02:55:46;15.80;99.90
13472;DHT22;6808;49.444;11.034;2023-07-22T02:58:12;15.80;99.90
13472;DHT22;6808;49.444;11.034;2023-07-22T03:00:37;15.80;99.90
13472;DHT22;6808;49.444;11.034;2023-07-22T03:03:03;15.70;99.90
13472;DHT22;6808;49.444;11.034;2023-07-22T03:05:31;15.70;99.90
13472;DHT22;6808;49.444;11.034;2023-07-22T03:07:57;15.70;99.90
13472;DHT22;6808;49.444;11.034;2023-07-22T03:10:23;15.70;99.90
13472;DHT22;6808;49.444;11.034;2023-07-22T03:12:51;15.70;99.90
13472;DHT22;6808;49.444;11.034;2023-07-22T03:15:20;15.70;99.90
13472;DHT22;6808;49.444;11.034;2023-07-22T03:17:46;15.70;99.90
13472;DHT22;6808;49.444;11.034;2023-07-22T03:20:11;15.70;99.90
13472;DHT22;6808;49.444;11.034;2023-07-22T03:22:40;15.70;99.90
13472;DHT22;6808;49.444;11.034;2023-07-22T03:25:08;15.70;99.90
13472;DHT22;6808;49.444;11.034;2023-07-22T03:27:36;15.70;99.90
13472;DHT22;6808;49.444;11.034;2023-07-22T03:30:05;15.60;99.90
13472;DHT22;6808;49.444;11.034;2023-07-22T03:32:35;15.50;99.90
13472;DHT22;6808;49.444;11.034;2023-07-22T03:35:01;15.50;99.90
13472;DHT22;6808;49.444;11.034;2023-07-22T03:37:27;15.60;99.90
13472;DHT22;6808;49.444;11.034;2023-07-22T03:39:53;15.40;99.90
13472;DHT22;6808;49.444;11.034;2023-07-22T03:42:18;15.40;99.90
13472;DHT22;6808;49.444;11.034;2023-07-22T03:44:44;15.40;99.90
13472;DHT22;6808;49.444;11.034;2023-07-22T03:47:09;15.40;99.90
13472;DHT22;6808;49.444;11.034;2023-07-22T03:49:35;15.40;99.90
13472;DHT22;6808;49.444;11.034;2023-07-22T03:52:00;15.40;99.90
13472;DHT22;6808;49.444;11.034;2023-07-22T03:54:26;15.40;99.90
13472;DHT22;6808;49.444;11.034;2023-07-22T03:56:51;15.40;99.90
13472;DHT22;6808;49.444;11.034;2023-07-22T03:59:17;15.40;99.90
13472;DHT22;6808;49.444;11.034;2023-07-22T04:01:42;15.40;99.90
13472;DHT22;6808;49.444;11.034;2023-07-22T04:04:08;15.40;99.90
13472;DHT22;6808;49.444;11.034;2023-07-22T04:06:34;15.40;99.90
13472;DHT22;6808;49.444;11.034;2023-07-22T04:08:59;15.40;99.90
13472;DHT22;6808;49.444;11.034;2023-07-22T04:11:26;15.40;99.90
13472;DHT22;6808;49.444;11.034;2023-07-22T04:13:52;15.40;99.90
13472;DHT22;6808;49.444;11.034;2023-07-22T04:16:17;15.40;99.90
13472;DHT22;6808;49.444;11.034;2023-07-22T04:18:43;15.40;99.90
13472;DHT22;6808;49.444;11.034;2023-07-22T04:21:08;15.40;99.90
13472;DHT22;6808;49.444;11.034;2023-07-22T04:23:34;15.40;99.90
13472;DHT22;6808;49.444;11.034;2023-07-22T04:26:02;15.40;99.90
13472;DHT22;6808;49.444;11.034;2023-07-22T04:28:28;15.40;99.90
13472;DHT22;6808;49.444;11.034;2023-07-22T04:30:58;15.40;99.90
13472;DHT22;6808;49.444;11.034;2023-07-22T04:33:25;15.40;99.90
13472;DHT22;6808;49.444;11.034;2023-07-22T04:35:53;15.40;99.90
13472;DHT22;6808;49.444;11.034;2023-07-22T04:38:19;15.40;99.90
13472;DHT22;6808;49.444;11.034;2023-07-22T04:40:45;15.40;99.90
13472;DHT22;6808;49.444;11.034;2023-07-22T04:43:10;15.80;99.90
13472;DHT22;6808;49.444;11.034;2023-07-22T04:45:37;15.40;99.90
13472;DHT22;6808;49.444;11.034;2023-07-22T04:48:05;15.50;99.90
13472;DHT22;6808;49.444;11.034;2023-07-22T04:50:31;15.50;99.90
13472;DHT22;6808;49.444;11.034;2023-07-22T04:52:57;15.50;99.90
13472;DHT22;6808;49.444;11.034;2023-07-22T04:55:22;16.20;99.90
13472;DHT22;6808;49.444;11.034;2023-07-22T04:57:48;15.60;99.90
13472;DHT22;6808;49.444;11.034;2023-07-22T05:00:14;15.60;99.90
13472;DHT22;6808;49.444;11.034;2023-07-22T05:02:42;15.70;99.90
13472;DHT22;6808;49.444;11.034;2023-07-22T05:05:14;15.80;99.90
13472;DHT22;6808;49.444;11.034;2023-07-22T05:07:39;15.80;99.90
13472;DHT22;6808;49.444;11.034;2023-07-22T05:10:07;15.80;99.90
13472;DHT22;6808;49.444;11.034;2023-07-22T05:12:38;15.80;99.90
13472;DHT22;6808;49.444;11.034;2023-07-22T05:15:04;15.80;99.90
13472;DHT22;6808;49.444;11.034;2023-07-22T05:17:30;15.90;99.90
13472;DHT22;6808;49.444;11.034;2023-07-22T05:19:57;15.90;99.90
13472;DHT22;6808;49.444;11.034;2023-07-22T05:22:22;15.90;99.90
13472;DHT22;6808;49.444;11.034;2023-07-22T05:24:48;15.90;99.90
13472;DHT22;6808;49.444;11.034;2023-07-22T05:27:13;15.90;99.90
13472;DHT22;6808;49.444;11.034;2023-07-22T05:29:39;16.00;99.90
13472;DHT22;6808;49.444;11.034;2023-07-22T05:32:06;16.00;99.90
13472;DHT22;6808;49.444;11.034;2023-07-22T05:34:31;16.00;99.90
13472;DHT22;6808;49.444;11.034;2023-07-22T05:36:57;16.00;99.90
13472;DHT22;6808;49.444;11.034;2023-07-22T05:39:23;16.00;99.90
13472;DHT22;6808;49.444;11.034;2023-07-22T05:41:48;15.80;99.90
13472;DHT22;6808;49.444;11.034;2023-07-22T05:44:14;15.80;99.90
13472;DHT22;6808;49.444;11.034;2023-07-22T05:46:40;15.80;99.90
13472;DHT22;6808;49.444;11.034;2023-07-22T05:49:05;15.80;99.90
13472;DHT22;6808;49.444;11.034;2023-07-22T05:51:31;15.90;99.90
13472;DHT22;6808;49.444;11.034;2023-07-22T05:53:56;16.00;99.90
13472;DHT22;6808;49.444;11.034;2023-07-22T05:56:22;17.40;99.90
13472;DHT22;6808;49.444;11.034;2023-07-22T05:58:48;15.80;99.90
13472;DHT22;6808;49.444;11.034;2023-07-22T06:01:14;15.90;99.90
13472;DHT22;6808;49.444;11.034;2023-07-22T06:03:40;15.90;99.90
13472;DHT22;6808;49.444;11.034;2023-07-22T06:06:05;16.00;99.90
13472;DHT22;6808;49.444;11.034;2023-07-22T06:08:31;16.00;99.90
13472;DHT22;6808;49.444;11.034;2023-07-22T06:10:57;16.10;99.90
13472;DHT22;6808;49.444;11.034;2023-07-22T06:13:22;16.20;99.90
13472;DHT22;6808;49.444;11.034;2023-07-22T06:15:48;16.30;99.90
13472;DHT22;6808;49.444;11.034;2023-07-22T06:18:13;16.40;99.90
13472;DHT22;6808;49.444;11.034;2023-07-22T06:20:39;16.40;99.90
13472;DHT22;6808;49.444;11.034;2023-07-22T06:23:05;16.30;99.90
13472;DHT22;6808;49.444;11.034;2023-07-22T06:25:31;16.40;99.90
13472;DHT22;6808;49.444;11.034;2023-07-22T06:27:56;16.40;99.90
13472;DHT22;6808;49.444;11.034;2023-07-22T06:30:22;16.40;99.90
13472;DHT22;6808;49.444;11.034;2023-07-22T06:32:47;16.40;99.90
13472;DHT22;6808;49.444;11.034;2023-07-22T06:35:13;16.40;99.90
13472;DHT22;6808;49.444;11.034;2023-07-22T06:37:39;16.30;99.90
13472;DHT22;6808;49.444;11.034;2023-07-22T06:40:06;16.70;99.90
13472;DHT22;6808;49.444;11.034;2023-07-22T06:42:31;16.40;99.90
13472;DHT22;6808;49.444;11.034;2023-07-22T06:44:57;16.40;99.90
13472;DHT22;6808;49.444;11.034;2023-07-22T06:47:23;16.50;99.90
13472;DHT22;6808;49.444;11.034;2023-07-22T06:49:48;16.50;99.90
13472;DHT22;6808;49.444;11.034;2023-07-22T06:52:14;16.40;99.90
13472;DHT22;6808;49.444;11.034;2023-07-22T06:54:39;16.70;99.90
13472;DHT22;6808;49.444;11.034;2023-07-22T06:57:06;16.40;99.90
13472;DHT22;6808;49.444;11.034;2023-07-22T06:59:32;16.50;99.90
13472;DHT22;6808;49.444;11.034;2023-07-22T07:01:58;16.50;99.90
13472;DHT22;6808;49.444;11.034;2023-07-22T07:04:23;16.50;99.90
13472;DHT22;6808;49.444;11.034;2023-07-22T07:06:50;16.60;99.90
13472;DHT22;6808;49.444;11.034;2023-07-22T07:09:15;16.70;99.90
13472;DHT22;6808;49.444;11.034;2023-07-22T07:11:41;17.30;99.90
13472;DHT22;6808;49.444;11.034;2023-07-22T07:14:06;16.70;99.90
13472;DHT22;6808;49.444;11.034;2023-07-22T07:16:32;17.10;99.90
13472;DHT22;6808;49.444;11.034;2023-07-22T07:18:59;16.90;99.90
13472;DHT22;6808;49.444;11.034;2023-07-22T07:21:25;17.60;99.90
13472;DHT22;6808;49.444;11.034;2023-07-22T07:23:52;17.00;99.90
13472;DHT22;6808;49.444;11.034;2023-07-22T07:26:18;17.10;99.90
13472;DHT22;6808;49.444;11.034;2023-07-22T07:28:44;17.20;99.90
13472;DHT22;6808;49.444;11.034;2023-07-22T07:31:10;17.20;99.90
13472;DHT22;6808;49.444;11.034;2023-07-22T07:33:35;17.30;99.90
13472;DHT22;6808;49.444;11.034;2023-07-22T07:36:02;17.30;99.90
13472;DHT22;6808;49.444;11.034;2023-07-22T07:38:29;17.20;99.90
13472;DHT22;6808;49.444;11.034;2023-07-22T07:40:58;17.20;99.90
13472;DHT22;6808;49.444;11.034;2023-07-22T07:43:24;17.20;99.90
13472;DHT22;6808;49.444;11.034;2023-07-22T07:45:50;17.30;99.90
13472;DHT22;6808;49.444;11.034;2023-07-22T07:48:16;17.30;99.90
13472;DHT22;6808;49.444;11.034;2023-07-22T07:50:42;17.20;99.90
13472;DHT22;6808;49.444;11.034;2023-07-22T07:53:08;17.20;99.60
13472;DHT22;6808;49.444;11.034;2023-07-22T07:55:34;17.20;99.80
13472;DHT22;6808;49.444;11.034;2023-07-22T07:57:59;17.20;99.70
13472;DHT22;6808;49.444;11.034;2023-07-22T08:00:25;17.30;99.80
13472;DHT22;6808;49.444;11.034;2023-07-22T08:02:50;17.40;99.90
13472;DHT22;6808;49.444;11.034;2023-07-22T08:05:16;17.40;99.90
13472;DHT22;6808;49.444;11.034;2023-07-22T08:07:41;17.40;99.50
13472;DHT22;6808;49.444;11.034;2023-07-22T08:10:07;17.40;99.30
13472;DHT22;6808;49.444;11.034;2023-07-22T08:12:34;17.50;99.50
13472;DHT22;6808;49.444;11.034;2023-07-22T08:15:00;18.00;99.30
13472;DHT22;6808;49.444;11.034;2023-07-22T08:17:26;18.30;99.10
13472;DHT22;6808;49.444;11.034;2023-07-22T08:19:52;17.60;98.60
13472;DHT22;6808;49.444;11.034;2023-07-22T08:22:18;17.60;98.40
13472;DHT22;6808;49.444;11.034;2023-07-22T08:24:43;18.00;98.10
13472;DHT22;6808;49.444;11.034;2023-07-22T08:27:09;17.80;99.60
13472;DHT22;6808;49.444;11.034;2023-07-22T08:29:36;18.10;98.70
13472;DHT22;6808;49.444;11.034;2023-07-22T08:32:02;18.00;97.70
13472;DHT22;6808;49.444;11.034;2023-07-22T08:34:28;18.10;96.70
13472;DHT22;6808;49.444;11.034;2023-07-22T08:36:53;18.20;96.40
13472;DHT22;6808;49.444;11.034;2023-07-22T08:39:19;18.20;96.80
13472;DHT22;6808;49.444;11.034;2023-07-22T08:41:48;18.40;97.50
13472;DHT22;6808;49.444;11.034;2023-07-22T08:44:18;18.30;97.40
13472;DHT22;6808;49.444;11.034;2023-07-22T08:46:45;18.40;96.30
13472;DHT22;6808;49.444;11.034;2023-07-22T08:49:11;18.60;98.30
13472;DHT22;6808;49.444;11.034;2023-07-22T08:51:37;18.60;97.50
13472;DHT22;6808;49.444;11.034;2023-07-22T08:54:05;18.70;97.40
13472;DHT22;6808;49.444;11.034;2023-07-22T08:56:31;18.80;96.80
13472;DHT22;6808;49.444;11.034;2023-07-22T08:58:57;19.00;97.20
13472;DHT22;6808;49.444;11.034;2023-07-22T09:01:23;19.90;96.20
13472;DHT22;6808;49.444;11.034;2023-07-22T09:03:49;19.30;97.00
13472;DHT22;6808;49.444;11.034;2023-07-22T09:06:19;19.50;94.80
13472;DHT22;6808;49.444;11.034;2023-07-22T09:08:45;20.00;93.60
13472;DHT22;6808;49.444;11.034;2023-07-22T09:11:11;20.00;96.00
13472;DHT22;6808;49.444;11.034;2023-07-22T09:13:37;19.60;94.50
13472;DHT22;6808;49.444;11.034;2023-07-22T09:16:06;19.70;93.10
13472;DHT22;6808;49.444;11.034;2023-07-22T09:18:35;20.10;94.30
13472;DHT22;6808;49.444;11.034;2023-07-22T09:21:00;20.20;93.50
13472;DHT22;6808;49.444;11.034;2023-07-22T09:23:37;20.30;91.50
13472;DHT22;6808;49.444;11.034;2023-07-22T09:26:16;20.50;92.40
13472;DHT22;6808;49.444;11.034;2023-07-22T09:28:52;20.70;91.90
13472;DHT22;6808;49.444;11.034;2023-07-22T09:31:20;20.80;92.10
13472;DHT22;6808;49.444;11.034;2023-07-22T09:33:45;21.00;91.10
13472;DHT22;6808;49.444;11.034;2023-07-22T09:36:11;21.40;93.40
13472;DHT22;6808;49.444;11.034;2023-07-22T09:38:37;21.60;89.10
13472;DHT22;6808;49.444;11.034;2023-07-22T09:41:03;21.70;92.70
13472;DHT22;6808;49.444;11.034;2023-07-22T09:43:30;21.40;91.50
13472;DHT22;6808;49.444;11.034;2023-07-22T09:45:56;21.40;83.80
13472;DHT22;6808;49.444;11.034;2023-07-22T09:48:30;21.30;81.80
13472;DHT22;6808;49.444;11.034;2023-07-22T09:51:04;21.10;81.30
13472;DHT22;6808;49.444;11.034;2023-07-22T09:53:30;21.00;90.80
13472;DHT22;6808;49.444;11.034;2023-07-22T09:55:55;21.30;84.70
13472;DHT22;6808;49.444;11.034;2023-07-22T09:58:30;21.30;90.00
13472;DHT22;6808;49.444;11.034;2023-07-22T10:00:57;21.80;94.20
13472;DHT22;6808;49.444;11.034;2023-07-22T10:03:29;22.20;91.30
13472;DHT22;6808;49.444;11.034;2023-07-22T10:05:58;22.20;92.90
13472;DHT22;6808;49.444;11.034;2023-07-22T10:08:25;22.00;80.60
13472;DHT22;6808;49.444;11.034;2023-07-22T10:10:53;22.40;95.40
13472;DHT22;6808;49.444;11.034;2023-07-22T10:13:19;22.50;90.10
13472;DHT22;6808;49.444;11.034;2023-07-22T10:15:46;22.50;86.90
13472;DHT22;6808;49.444;11.034;2023-07-22T10:18:13;22.50;88.40
13472;DHT22;6808;49.444;11.034;2023-07-22T10:20:39;22.50;87.40
13472;DHT22;6808;49.444;11.034;2023-07-22T10:23:07;22.70;85.60
13472;DHT22;6808;49.444;11.034;2023-07-22T10:25:34;22.20;85.00
13472;DHT22;6808;49.444;11.034;2023-07-22T10:28:01;22.30;83.20
13472;DHT22;6808;49.444;11.034;2023-07-22T10:30:26;21.90;84.80
13472;DHT22;6808;49.444;11.034;2023-07-22T10:32:53;21.80;82.80
13472;DHT22;6808;49.444;11.034;2023-07-22T10:37:49;21.70;86.00
13472;DHT22;6808;49.444;11.034;2023-07-22T10:40:23;21.60;85.00
13472;DHT22;6808;49.444;11.034;2023-07-22T10:43:03;21.60;85.90
13472;DHT22;6808;49.444;11.034;2023-07-22T10:45:39;21.50;85.90
13472;DHT22;6808;49.444;11.034;2023-07-22T10:48:06;21.40;88.60
13472;DHT22;6808;49.444;11.034;2023-07-22T10:50:50;21.40;85.40
13472;DHT22;6808;49.444;11.034;2023-07-22T11:11:56;22.20;82.80
13472;DHT22;6808;49.444;11.034;2023-07-22T11:16:51;22.20;82.70
13472;DHT22;6808;49.444;11.034;2023-07-22T11:19:18;22.00;79.70
13472;DHT22;6808;49.444;11.034;2023-07-22T11:21:46;22.00;78.50
13472;DHT22;6808;49.444;11.034;2023-07-22T11:24:12;22.80;90.60
13472;DHT22;6808;49.444;11.034;2023-07-22T11:26:39;22.90;81.30
13472;DHT22;6808;49.444;11.034;2023-07-22T11:29:06;22.40;88.90
13472;DHT22;6808;49.444;11.034;2023-07-22T11:31:39;23.00;79.70
13472;DHT22;6808;49.444;11.034;2023-07-22T11:34:19;22.60;88.50
13472;DHT22;6808;49.444;11.034;2023-07-22T11:36:47;22.90;82.20
13472;DHT22;6808;49.444;11.034;2023-07-22T11:39:15;22.80;77.10
13472;DHT22;6808;49.444;11.034;2023-07-22T11:41:42;22.80;77.80
13472;DHT22;6808;49.444;11.034;2023-07-22T11:44:09;22.70;78.80
13472;DHT22;6808;49.444;11.034;2023-07-22T11:46:59;22.80;83.70
13472;DHT22;6808;49.444;11.034;2023-07-22T11:49:32;22.50;81.70
13472;DHT22;6808;49.444;11.034;2023-07-22T11:52:06;22.40;82.50
13472;DHT22;6808;49.444;11.034;2023-07-22T11:54:33;22.50;82.40
13472;DHT22;6808;49.444;11.034;2023-07-22T11:57:16;22.50;83.60
13472;DHT22;6808;49.444;11.034;2023-07-22T11:59:48;22.70;84.50
13472;DHT22;6808;49.444;11.034;2023-07-22T12:04:42;23.00;84.20
13472;DHT22;6808;49.444;11.034;2023-07-22T12:07:25;22.90;78.10
13472;DHT22;6808;49.444;11.034;2023-07-22T12:09:52;23.00;79.90
13472;DHT22;6808;49.444;11.034;2023-07-22T12:12:17;23.10;77.30
13472;DHT22;6808;49.444;11.034;2023-07-22T12:14:43;23.30;84.90
13472;DHT22;6808;49.444;11.034;2023-07-22T12:17:09;23.70;83.20
13472;DHT22;6808;49.444;11.034;2023-07-22T12:19:35;23.90;86.20
13472;DHT22;6808;49.444;11.034;2023-07-22T12:22:00;24.00;71.90
13472;DHT22;6808;49.444;11.034;2023-07-22T12:24:27;24.00;73.00
13472;DHT22;6808;49.444;11.034;2023-07-22T12:26:54;24.30;82.00
13472;DHT22;6808;49.444;11.034;2023-07-22T12:29:20;24.00;77.60
13472;DHT22;6808;49.444;11.034;2023-07-22T12:31:47;23.90;82.10
13472;DHT22;6808;49.444;11.034;2023-07-22T12:34:13;23.90;74.80
13472;DHT22;6808;49.444;11.034;2023-07-22T12:36:39;24.00;69.00
13472;DHT22;6808;49.444;11.034;2023-07-22T12:39:05;23.70;70.30
13472;DHT22;6808;49.444;11.034;2023-07-22T12:41:30;23.80;78.90
13472;DHT22;6808;49.444;11.034;2023-07-22T12:43:56;23.80;78.20
13472;DHT22;6808;49.444;11.034;2023-07-22T12:46:21;23.80;78.60
13472;DHT22;6808;49.444;11.034;2023-07-22T12:48:47;23.80;77.30
13472;DHT22;6808;49.444;11.034;2023-07-22T12:51:12;24.30;90.20
13472;DHT22;6808;49.444;11.034;2023-07-22T12:53:39;24.40;84.10
13472;DHT22;6808;49.444;11.034;2023-07-22T12:56:04;24.70;73.10
13472;DHT22;6808;49.444;11.034;2023-07-22T12:58:31;25.20;67.90
13472;DHT22;6808;49.444;11.034;2023-07-22T13:00:57;24.60;76.00
13472;DHT22;6808;49.444;11.034;2023-07-22T13:03:23;24.70;76.80
13472;DHT22;6808;49.444;11.034;2023-07-22T13:05:49;25.30;70.80
13472;DHT22;6808;49.444;11.034;2023-07-22T13:08:14;25.20;83.50
13472;DHT22;6808;49.444;11.034;2023-07-22T13:10:40;25.30;77.20
13472;DHT22;6808;49.444;11.034;2023-07-22T13:13:09;25.30;79.90
13472;DHT22;6808;49.444;11.034;2023-07-22T13:15:35;25.40;69.60
13472;DHT22;6808;49.444;11.034;2023-07-22T13:18:01;25.60;74.60
13472;DHT22;6808;49.444;11.034;2023-07-22T13:20:28;25.60;71.50
13472;DHT22;6808;49.444;11.034;2023-07-22T13:22:55;25.50;65.50
13472;DHT22;6808;49.444;11.034;2023-07-22T13:25:20;25.40;65.60
13472;DHT22;6808;49.444;11.034;2023-07-22T13:27:46;25.40;63.40
13472;DHT22;6808;49.444;11.034;2023-07-22T13:30:12;25.40;70.60
13472;DHT22;6808;49.444;11.034;2023-07-22T13:32:39;25.30;78.10
13472;DHT22;6808;49.444;11.034;2023-07-22T13:35:05;25.40;82.60
13472;DHT22;6808;49.444;11.034;2023-07-22T13:37:30;25.50;75.60
13472;DHT22;6808;49.444;11.034;2023-07-22T13:39:56;25.60;71.00
13472;DHT22;6808;49.444;11.034;2023-07-22T13:42:23;25.40;74.40
13472;DHT22;6808;49.444;11.034;2023-07-22T13:44:49;25.40;65.30
13472;DHT22;6808;49.444;11.034;2023-07-22T13:47:15;25.20;62.20
13472;DHT22;6808;49.444;11.034;2023-07-22T13:49:40;25.20;66.00
13472;DHT22;6808;49.444;11.034;2023-07-22T13:52:06;24.90;70.10
13472;DHT22;6808;49.444;11.034;2023-07-22T13:54:31;24.80;69.00
13472;DHT22;6808;49.444;11.034;2023-07-22T13:56:58;24.60;68.60
13472;DHT22;6808;49.444;11.034;2023-07-22T13:59:24;24.50;66.60
13472;DHT22;6808;49.444;11.034;2023-07-22T14:01:49;24.50;67.60
13472;DHT22;6808;49.444;11.034;2023-07-22T14:04:15;24.60;73.00
13472;DHT22;6808;49.444;11.034;2023-07-22T14:06:40;25.00;64.40
13472;DHT22;6808;49.444;11.034;2023-07-22T14:09:06;24.60;61.40
13472;DHT22;6808;49.444;11.034;2023-07-22T14:11:32;24.60;68.70
13472;DHT22;6808;49.444;11.034;2023-07-22T14:13:57;25.00;66.70
13472;DHT22;6808;49.444;11.034;2023-07-22T14:16:23;24.50;73.80
13472;DHT22;6808;49.444;11.034;2023-07-22T14:18:49;25.10;68.70
13472;DHT22;6808;49.444;11.034;2023-07-22T14:21:14;25.00;74.60
13472;DHT22;6808;49.444;11.034;2023-07-22T14:23:40;24.50;73.60
13472;DHT22;6808;49.444;11.034;2023-07-22T14:26:05;24.70;73.60
13472;DHT22;6808;49.444;11.034;2023-07-22T14:28:31;24.50;72.50
13472;DHT22;6808;49.444;11.034;2023-07-22T14:30:56;24.70;73.60
13472;DHT22;6808;49.444;11.034;2023-07-22T14:33:22;24.70;67.40
13472;DHT22;6808;49.444;11.034;2023-07-22T14:35:49;24.70;71.20
13472;DHT22;6808;49.444;11.034;2023-07-22T14:38:14;25.40;71.70
13472;DHT22;6808;49.444;11.034;2023-07-22T14:40:41;25.10;70.90
13472;DHT22;6808;49.444;11.034;2023-07-22T14:43:07;25.40;67.10
13472;DHT22;6808;49.444;11.034;2023-07-22T14:45:32;25.10;68.90
13472;DHT22;6808;49.444;11.034;2023-07-22T14:47:58;25.10;66.20
13472;DHT22;6808;49.444;11.034;2023-07-22T14:50:24;25.10;59.30
13472;DHT22;6808;49.444;11.034;2023-07-22T14:52:50;25.10;68.80
13472;DHT22;6808;49.444;11.034;2023-07-22T14:55:16;25.20;68.70
13472;DHT22;6808;49.444;11.034;2023-07-22T14:57:41;25.10;64.90
13472;DHT22;6808;49.444;11.034;2023-07-22T15:00:07;25.00;65.70
13472;DHT22;6808;49.444;11.034;2023-07-22T15:02:33;25.00;67.30
13472;DHT22;6808;49.444;11.034;2023-07-22T15:04:59;25.10;60.60
13472;DHT22;6808;49.444;11.034;2023-07-22T15:07:24;25.30;63.10
13472;DHT22;6808;49.444;11.034;2023-07-22T15:09:51;25.70;65.00
13472;DHT22;6808;49.444;11.034;2023-07-22T15:12:17;25.30;67.20
13472;DHT22;6808;49.444;11.034;2023-07-22T15:14:44;25.70;64.60
13472;DHT22;6808;49.444;11.034;2023-07-22T15:17:09;25.20;65.00
13472;DHT22;6808;49.444;11.034;2023-07-22T15:19:35;25.20;66.80
13472;DHT22;6808;49.444;11.034;2023-07-22T15:22:01;25.40;61.60
13472;DHT22;6808;49.444;11.034;2023-07-22T15:24:28;25.30;60.30
13472;DHT22;6808;49.444;11.034;2023-07-22T15:26:54;25.20;59.50
13472;DHT22;6808;49.444;11.034;2023-07-22T15:29:19;25.70;66.40
13472;DHT22;6808;49.444;11.034;2023-07-22T15:31:45;25.50;61.70
13472;DHT22;6808;49.444;11.034;2023-07-22T15:34:11;25.50;64.40
13472;DHT22;6808;49.444;11.034;2023-07-22T15:36:36;25.60;64.50
13472;DHT22;6808;49.444;11.034;2023-07-22T15:39:02;25.70;70.80
13472;DHT22;6808;49.444;11.034;2023-07-22T15:41:28;25.70;59.80
13472;DHT22;6808;49.444;11.034;2023-07-22T15:43:54;25.60;64.50
13472;DHT22;6808;49.444;11.034;2023-07-22T15:46:19;25.40;63.40
13472;DHT22;6808;49.444;11.034;2023-07-22T15:48:45;25.40;59.90
13472;DHT22;6808;49.444;11.034;2023-07-22T15:51:10;25.40;59.70